Data for 08/04/2008

Time Sea-Level Adjusted Pressure Absolute Pressure Temperature Relative Humidity Dew Point   
(mb) (inHg) (mb) (inHg) (C) (F) (%) (C) (F)
00:05 1019 30.09 848 25.04 16.8 62.2 58 8.5 47.4
00:10 1019 30.09 848 25.04 16.6 61.8 60 8.8 47.8
00:15 1019 30.09 848 25.04 16.2 61.2 61 8.7 47.7
00:20 1019 30.09 849 25.07 16 60.8 62 8.7 47.7
00:25 1020 30.12 849 25.07 15.7 60.3 64 9.1 48.4
00:30 1020 30.12 849 25.07 15.7 60.2 64 9 48.1
00:35 1020 30.12 849 25.07 15.8 60.5 65 9.3 48.8
00:40 1020 30.12 849 25.07 15.7 60.3 66 9.5 49.1
00:45 1020 30.12 849 25.07 15.6 60.1 68 9.7 49.4
00:50 1020 30.12 849 25.07 15.5 60 69 9.9 49.9
00:55 1020 30.12 849 25.07 15.4 59.8 70 10.1 50.2
01:00 1020 30.12 849 25.07 15.3 59.5 71 10.2 50.3
01:05 1020 30.12 849 25.07 15.3 59.5 71 10.2 50.4
01:10 1020 30.12 849 25.07 15.4 59.7 71 10.2 50.4
01:15 1020 30.12 849 25.07 15.4 59.8 71 10.3 50.5
01:20 1020 30.12 849 25.07 15.4 59.8 72 10.4 50.7
01:25 1020 30.12 849 25.07 15.4 59.7 72 10.4 50.8
01:30 1020 30.12 849 25.07 15.3 59.6 72 10.4 50.6
01:35 1020 30.12 849 25.07 15.3 59.5 73 10.5 50.9
01:40 1020 30.12 849 25.07 15.2 59.3 74 10.5 50.9
01:45 1020 30.12 849 25.07 15.1 59.1 74 10.5 50.9
01:50 1020 30.12 849 25.07 15 58.9 75 10.6 51
01:55 1020 30.12 849 25.07 14.9 58.8 75 10.5 51
02:00 1020 30.12 849 25.07 14.8 58.6 76 10.6 51
02:05 1020 30.12 850 25.1 14.7 58.5 76 10.6 51.1
02:10 1020 30.12 849 25.07 14.6 58.3 77 10.6 51.1
02:15 1020 30.12 849 25.07 14.5 58.2 78 10.7 51.3
02:20 1020 30.12 849 25.07 14.4 57.9 78 10.6 51.1
02:25 1020 30.12 849 25.07 14.3 57.8 77 10.3 50.6
02:30 1020 30.12 849 25.07 14.4 57.9 76 10.3 50.6
02:35 1020 30.12 850 25.1 14.3 57.7 76 10.2 50.3
02:40 1020 30.12 850 25.1 14.3 57.7 76 10.2 50.4
02:45 1020 30.12 850 25.1 14.2 57.5 76 10.1 50.2
02:50 1020 30.12 850 25.1 14.2 57.6 76 10.1 50.1
02:55 1021 30.15 850 25.1 14.3 57.7 75 10 50
03:00 1021 30.15 850 25.1 14.2 57.6 76 10 50
03:05 1021 30.15 850 25.1 14.2 57.6 75 9.9 49.7
03:10 1021 30.15 850 25.1 14.3 57.8 74 9.9 49.8
03:15 1021 30.15 850 25.1 14.3 57.8 74 9.7 49.5
03:20 1021 30.15 850 25.1 14.4 58 74 9.8 49.7
03:25 1021 30.15 850 25.1 14.4 57.9 73 9.7 49.5
03:30 1021 30.15 850 25.1 14.3 57.7 74 9.7 49.5
03:35 1021 30.15 850 25.1 14.3 57.7 74 9.7 49.5
03:40 1021 30.15 850 25.1 14.3 57.7 74 9.7 49.5
03:45 1021 30.15 850 25.1 14.3 57.7 74 9.7 49.5
03:50 1021 30.15 850 25.1 14.2 57.5 75 9.8 49.6
03:55 1021 30.15 850 25.1 14.1 57.4 75 9.7 49.5
04:00 1021 30.15 850 25.1 14.1 57.4 75 9.7 49.5
04:05 1021 30.15 850 25.1 14.2 57.6 74 9.6 49.3
04:10 1021 30.15 850 25.1 14.4 58 73 9.7 49.4
04:15 1021 30.15 850 25.1 14.5 58 73 9.8 49.6
04:20 1021 30.15 850 25.1 14.3 57.8 74 9.8 49.7
04:25 1021 30.15 850 25.1 14.2 57.6 75 9.9 49.8
04:30 1021 30.15 850 25.1 14.1 57.4 76 9.9 49.9
04:35 1021 30.15 850 25.1 14 57.2 77 10 50
04:40 1021 30.15 850 25.1 14 57.1 77 10 49.9
04:45 1021 30.15 850 25.1 14.1 57.3 76 10 50
04:50 1021 30.15 850 25.1 14.1 57.3 77 10.1 50.1
04:55 1021 30.15 850 25.1 14 57.2 77 10.1 50.2
05:00 1021 30.15 850 25.1 13.9 57.1 77 10.1 50.1
05:05 1021 30.15 850 25.1 13.9 57 78 10.2 50.3
05:10 1021 30.15 850 25.1 13.8 56.8 79 10.2 50.4
05:15 1021 30.15 850 25.1 13.6 56.6 80 10.2 50.4
05:20 1021 30.15 850 25.1 13.5 56.3 80 10.2 50.3
05:25 1021 30.15 850 25.1 13.3 56 81 10.2 50.4
05:30 1021 30.15 850 25.1 13.1 55.5 82 10 50.1
05:35 1021 30.15 851 25.13 13 55.3 80 9.7 49.5
05:40 1021 30.15 851 25.13 13.1 55.7 79 9.6 49.3
05:45 1021 30.15 851 25.13 13.2 55.7 79 9.6 49.3
05:50 1021 30.15 851 25.13 13.2 55.7 78 9.4 48.9
05:55 1021 30.15 851 25.13 12.6 54.7 80 9.2 48.6
06:00 1022 30.18 851 25.13 12.2 53.9 81 9 48.2
06:05 1022 30.18 851 25.13 12.4 54.3 78 8.8 47.8
06:10 1022 30.18 851 25.13 12.2 53.9 79 8.7 47.6
06:15 1022 30.18 851 25.13 12.1 53.7 79 8.5 47.4
06:20 1022 30.18 851 25.13 11.6 52.9 81 8.6 47.4
06:25 1022 30.18 851 25.13 11.6 52.9 80 8.4 47.1
06:30 1022 30.18 851 25.13 11.6 52.9 81 8.5 47.3
06:35 1022 30.18 851 25.13 11.6 52.9 80 8.2 46.8
06:40 1022 30.18 851 25.13 11.8 53.2 80 8.4 47.1
06:45 1022 30.18 851 25.13 12.1 53.7 77 8.2 46.8
06:50 1022 30.18 851 25.13 12.2 53.9 79 8.7 47.6
06:55 1022 30.18 851 25.13 12.3 54.1 78 8.5 47.3
07:00 1022 30.18 851 25.13 12.1 53.8 77 8.3 47
07:05 1022 30.18 851 25.13 12.2 54 77 8.2 46.8
07:10 1022 30.18 851 25.13 12.5 54.5 75 8.3 46.9
07:15 1022 30.18 851 25.13 12.9 55.3 73 8.3 47
07:20 1022 30.18 851 25.13 13.4 56.1 71 8.4 47.1
07:25 1022 30.18 851 25.13 14 57.1 70 8.5 47.4
07:30 1022 30.18 851 25.13 13.9 56.9 74 9.3 48.8
07:35 1022 30.18 851 25.13 13.2 55.8 75 8.9 48.1
07:40 1022 30.18 851 25.13 13.3 55.9 74 8.8 47.8
07:45 1022 30.18 851 25.13 13.5 56.4 73 8.8 47.9
07:50 1022 30.18 851 25.13 14 57.1 71 8.8 47.8
07:55 1022 30.18 852 25.16 14.8 58.7 67 8.9 48
08:00 1022 30.18 852 25.16 15.2 59.3 68 9.5 49
08:05 1022 30.18 852 25.16 15.4 59.7 65 9 48.1
08:10 1022 30.18 852 25.16 15.4 59.6 69 9.7 49.5
08:15 1022 30.18 852 25.16 15.3 59.5 68 9.5 49.1
08:20 1022 30.18 852 25.16 14.5 58 70 9.2 48.5
08:25 1022 30.18 852 25.16 14.5 58 67 8.6 47.4
08:30 1022 30.18 852 25.16 15.4 59.7 66 9 48.3
08:35 1022 30.18 852 25.16 15.7 60.3 65 9.2 48.6
08:40 1022 30.18 852 25.16 15.2 59.4 69 9.6 49.3
08:45 1022 30.18 852 25.16 14.8 58.6 68 9 48.2
08:50 1023 30.21 852 25.16 15.4 59.8 67 9.3 48.8
08:55 1023 30.21 852 25.16 15.3 59.5 69 9.7 49.5
09:00 1023 30.21 852 25.16 14.9 58.8 67 8.9 48
09:05 1023 30.21 852 25.16 15.9 60.7 66 9.7 49.4
09:10 1023 30.21 852 25.16 15.3 59.5 68 9.4 49
09:15 1023 30.21 852 25.16 15.7 60.3 65 9.2 48.5
09:20 1023 30.21 852 25.16 15.2 59.3 69 9.6 49.2
09:25 1023 30.21 852 25.16 15.4 59.7 67 9.3 48.8
09:30 1023 30.21 852 25.16 15.4 59.7 69 9.9 49.8
09:35 1023 30.21 852 25.16 15.1 59.2 68 9.2 48.6
09:40 1023 30.21 852 25.16 16.4 61.5 62 9.3 48.7
09:45 1023 30.21 852 25.16 17.4 63.4 61 9.9 49.7
09:50 1023 30.21 852 25.16 17.7 63.9 61 10.3 50.5
09:55 1023 30.21 852 25.16 16.9 62.4 64 10 50.1
10:00 1023 30.21 852 25.16 17.2 62.9 61 9.7 49.5
10:05 1023 30.21 852 25.16 17.7 63.8 60 9.8 49.6
10:10 1022 30.18 852 25.16 18.1 64.6 59 10 49.9
10:15 1023 30.21 852 25.16 18.1 64.6 57 9.6 49.2
10:20 1023 30.21 852 25.16 18.2 64.8 59 10.1 50.2
10:25 1023 30.21 852 25.16 18.4 65.1 56 9.6 49.3
10:30 1023 30.21 852 25.16 19.1 66.4 53 9.5 49.1
10:35 1022 30.18 852 25.16 18.5 65.4 58 10.1 50.3
10:40 1022 30.18 852 25.16 18.6 65.4 56 9.8 49.7
10:45 1022 30.18 852 25.16 18.9 66 56 9.9 49.9
10:50 1022 30.18 852 25.16 18.4 65.1 59 10.3 50.6
10:55 1023 30.21 852 25.16 18.6 65.4 55 9.5 49.1
11:00 1022 30.18 852 25.16 19.7 67.4 53 9.9 49.8
11:05 1022 30.18 852 25.16 19.6 67.2 54 10 50
11:10 1022 30.18 852 25.16 19.2 66.5 55 10 50
11:15 1022 30.18 852 25.16 19.4 66.8 55 10.1 50.2
11:20 1022 30.18 852 25.16 19.5 67 52 9.5 49.1
11:25 1022 30.18 852 25.16 19.6 67.2 55 10.5 51
11:30 1022 30.18 852 25.16 19.5 67.1 52 9.6 49.3
11:35 1022 30.18 852 25.16 20.6 69 50 9.9 49.9
11:40 1022 30.18 852 25.16 21 69.7 50 10.3 50.5
11:45 1022 30.18 852 25.16 20.8 69.5 49 10 50
11:50 1022 30.18 851 25.13 21.4 70.4 49 10.4 50.7
11:55 1022 30.18 851 25.13 21.9 71.5 47 10.4 50.7
12:00 1022 30.18 851 25.13 21.8 71.2 50 11.1 52
12:05 1022 30.18 851 25.13 20.7 69.3 52 10.6 51
12:10 1022 30.18 851 25.13 21.1 69.9 48 9.6 49.3
12:15 1022 30.18 851 25.13 22.4 72.3 46 10.3 50.6
12:20 1022 30.18 851 25.13 21.4 70.6 51 10.9 51.7
12:25 1022 30.18 851 25.13 21 69.9 48 9.6 49.3
12:30 1022 30.18 851 25.13 21.8 71.2 46 9.8 49.6
12:35 1022 30.18 851 25.13 22.2 71.9 46 10.3 50.6
12:40 1022 30.18 851 25.13 22.4 72.3 45 10.2 50.3
12:45 1022 30.18 851 25.13 21.4 70.6 49 10.5 50.9
12:50 1022 30.18 851 25.13 22.6 72.6 44 10 50
12:55 1022 30.18 851 25.13 21.9 71.4 45 9.4 49
13:00 1022 30.18 851 25.13 23.1 73.5 42 9.7 49.4
13:05 1022 30.18 851 25.13 23.3 74 42 9.8 49.6
13:10 1022 30.18 851 25.13 23.5 74.3 43 10.2 50.4
13:15 1022 30.18 851 25.13 23.5 74.4 42 10.1 50.1
13:20 1021 30.15 851 25.13 23.6 74.4 40 9.5 49
13:25 1021 30.15 851 25.13 23.6 74.5 42 10 50
13:30 1021 30.15 851 25.13 23.6 74.4 40 9.4 48.9
13:35 1021 30.15 851 25.13 23.9 75.1 42 10.3 50.6
13:40 1021 30.15 851 25.13 24.1 75.4 39 9.4 48.9
13:45 1021 30.15 851 25.13 24.6 76.2 39 9.9 49.8
13:50 1021 30.15 851 25.13 24 75.2 40 9.7 49.5
13:55 1021 30.15 851 25.13 24.6 76.2 36 8.8 47.9
14:00 1021 30.15 851 25.13 25.3 77.6 35 9 48.3
14:05 1021 30.15 851 25.13 24.7 76.4 38 9.6 49.2
14:10 1021 30.15 851 25.13 24.6 76.3 38 9.7 49.4
14:15 1021 30.15 851 25.13 25.1 77.2 37 9.5 49.2
14:20 1021 30.15 851 25.13 25.3 77.6 36 9.4 48.9
14:25 1021 30.15 851 25.13 25.2 77.3 36 9.3 48.7
14:30 1021 30.15 851 25.13 25.5 77.8 31 7.3 45.2
14:35 1021 30.15 851 25.13 25.5 77.9 31 7.5 45.5
14:40 1021 30.15 851 25.13 25.5 77.9 34 8.9 48
14:45 1021 30.15 851 25.13 25.6 78.1 37 9.9 49.9
14:50 1021 30.15 851 25.13 26.2 79.2 37 10.5 51
14:55 1021 30.15 851 25.13 25.7 78.3 35 9.2 48.6
15:00 1021 30.15 851 25.13 25.9 78.7 33 8.8 47.8
15:05 1021 30.15 851 25.13 26.4 79.5 34 9.5 49.1
15:10 1021 30.15 851 25.13 26 78.8 34 9.1 48.4
15:15 1021 30.15 850 25.1 26.3 79.4 32 8.5 47.3
15:20 1021 30.15 850 25.1 25.8 78.4 33 8.4 47
15:25 1021 30.15 850 25.1 25.4 77.6 33 8.3 46.9
15:30 1021 30.15 850 25.1 25.4 77.8 32 7.9 46.2
15:35 1021 30.15 850 25.1 24.8 76.7 33 7.7 45.9
15:40 1021 30.15 850 25.1 24.8 76.6 32 7 44.7
15:45 1021 30.15 850 25.1 25.6 78.1 32 7.7 45.9
15:50 1021 30.15 850 25.1 25.9 78.7 29 7 44.6
15:55 1021 30.15 850 25.1 26.4 79.6 29 7.3 45.1
16:00 1021 30.15 850 25.1 25.6 78.1 29 6.3 43.4
16:05 1021 30.15 850 25.1 26.5 79.8 27 6.5 43.7
16:10 1021 30.15 850 25.1 27 80.5 25 5.4 41.7
16:15 1021 30.15 850 25.1 26.4 79.4 26 5.4 41.8
16:20 1021 30.15 850 25.1 26.8 80.2 24 4.6 40.2
16:25 1021 30.15 850 25.1 27.1 80.8 25 5.7 42.3
16:30 1021 30.15 850 25.1 27.3 81.2 23 4.9 40.7
16:35 1021 30.15 850 25.1 27.6 81.6 23 4.7 40.5
16:40 1021 30.15 850 25.1 27.5 81.4 22 4.3 39.7
16:45 1021 30.15 850 25.1 27.3 81.1 22 4.2 39.6
16:50 1021 30.15 850 25.1 27.1 80.8 22 4.2 39.5
16:55 1021 30.15 850 25.1 26 78.8 25 4.6 40.2
17:00 1021 30.15 850 25.1 26.5 79.6 21 2.9 37.3
17:05 1021 30.15 850 25.1 25.9 78.5 23 3.5 38.3
17:10 1021 30.15 850 25.1 25.3 77.5 25 3.9 39.1
17:15 1021 30.15 850 25.1 25.3 77.5 22 2.5 36.5
17:20 1021 30.15 850 25.1 25.4 77.7 24 3.4 38.1
17:25 1021 30.15 850 25.1 26.1 79 23 3.4 38
17:30 1021 30.15 850 25.1 26.3 79.3 22 3.3 37.9
17:35 1021 30.15 850 25.1 25.8 78.4 22 2.7 36.8
17:40 1021 30.15 850 25.1 25.4 77.7 22 2.7 36.9
17:45 1021 30.15 850 25.1 25.6 78 22 2.6 36.6
17:50 1021 30.15 850 25.1 25.5 77.9 23 3 37.4
17:55 1021 30.15 850 25.1 26.4 79.6 22 3.1 37.5
18:00 1021 30.15 850 25.1 26.7 80 22 3.4 38.1
18:05 1021 30.15 850 25.1 25.7 78.3 23 3 37.5
18:10 1021 30.15 850 25.1 25.7 78.2 24 3.7 38.6
18:15 1021 30.15 850 25.1 26.2 79.1 22 3.3 38
18:20 1021 30.15 850 25.1 26.7 80 23 3.8 38.8
18:25 1021 30.15 850 25.1 26.5 79.8 23 3.7 38.7
18:30 1021 30.15 850 25.1 25.5 77.8 24 3.5 38.3
18:35 1021 30.15 850 25.1 25.9 78.7 23 3.3 37.9
18:40 1020 30.12 850 25.1 26 78.7 22 2.7 36.9
18:45 1020 30.12 850 25.1 26.2 79.2 23 3.5 38.2
18:50 1020 30.12 850 25.1 26 78.8 23 3.4 38.2
18:55 1020 30.12 850 25.1 25.6 78.1 23 3.3 37.9
19:00 1021 30.15 850 25.1 25.3 77.5 23 3.1 37.6
19:05 1021 30.15 850 25.1 25.2 77.3 24 3.4 38
19:10 1021 30.15 850 25.1 24.9 76.7 23 2.5 36.5
19:15 1021 30.15 850 25.1 24.8 76.6 24 3.1 37.6
19:20 1021 30.15 850 25.1 24.8 76.7 23 2.5 36.5
19:25 1021 30.15 850 25.1 24.9 76.7 24 3.4 38.2
19:30 1021 30.15 850 25.1 24.9 76.7 24 3.4 38.2
19:35 1021 30.15 850 25.1 24.8 76.7 24 2.8 37.1
19:40 1021 30.15 850 25.1 24.7 76.5 23 2.4 36.4
19:45 1021 30.15 850 25.1 24.6 76.3 23 2.3 36.1
19:50 1021 30.15 850 25.1 24.5 76.2 24 2.6 36.7
19:55 1021 30.15 850 25.1 24.5 76.1 27 4.5 40.1
20:00 1021 30.15 850 25.1 24.5 76 24 2.8 37.1
20:05 1021 30.15 850 25.1 24.4 75.9 28 4.7 40.4
20:10 1021 30.15 850 25.1 24.3 75.8 28 5 40.9
20:15 1021 30.15 850 25.1 24.3 75.7 26 3.7 38.7
20:20 1021 30.15 850 25.1 24 75.3 25 3.1 37.5
20:25 1021 30.15 850 25.1 23.9 75 28 4.7 40.5
20:30 1021 30.15 850 25.1 23.5 74.2 34 7 44.6
20:35 1021 30.15 850 25.1 22.4 72.3 40 8.2 46.8
20:40 1021 30.15 850 25.1 21.8 71.3 41 8.1 46.7
20:45 1021 30.15 850 25.1 21.6 70.8 42 8.3 46.9
20:50 1021 30.15 850 25.1 21.4 70.4 43 8.4 47.1
20:55 1021 30.15 850 25.1 21.1 70 43 8.3 46.9
21:00 1021 30.15 850 25.1 21 69.8 44 8.4 47.1
21:05 1021 30.15 851 25.13 20.8 69.4 44 8.3 47
21:10 1021 30.15 851 25.13 20.6 69.1 45 8.4 47
21:15 1021 30.15 851 25.13 20.4 68.8 45 8.2 46.8
21:20 1021 30.15 851 25.13 20.3 68.5 46 8.4 47.1
21:25 1021 30.15 851 25.13 20.1 68.2 46 8.2 46.8
21:30 1022 30.18 851 25.13 20 68 46 8.2 46.7
21:35 1022 30.18 851 25.13 19.9 67.8 46 8.1 46.6
21:40 1022 30.18 851 25.13 19.8 67.6 46 8 46.5
21:45 1022 30.18 851 25.13 19.8 67.6 46 8.1 46.6
21:50 1022 30.18 851 25.13 19.7 67.4 46 8 46.4
21:55 1022 30.18 851 25.13 19.6 67.3 47 8.2 46.7
22:00 1022 30.18 851 25.13 19.4 67 48 8.1 46.6
22:05 1022 30.18 851 25.13 19.3 66.8 48 8.2 46.8
22:10 1022 30.18 851 25.13 19.2 66.5 49 8.2 46.8
22:15 1022 30.18 851 25.13 19.2 66.5 49 8.3 46.9
22:20 1022 30.18 851 25.13 19.1 66.4 49 8.3 47
22:25 1022 30.18 851 25.13 19.1 66.4 49 8.2 46.8
22:30 1022 30.18 851 25.13 19.1 66.4 49 8.3 47
22:35 1022 30.18 851 25.13 19.1 66.3 49 8.4 47
22:40 1022 30.18 851 25.13 19 66.2 50 8.4 47
22:45 1022 30.18 851 25.13 18.9 66 50 8.3 47
22:50 1022 30.18 851 25.13 18.9 66 50 8.4 47.1
22:55 1022 30.18 851 25.13 18.9 66 50 8.4 47.1
23:00 1022 30.18 851 25.13 18.8 65.9 50 8.4 47.1
23:05 1022 30.18 851 25.13 18.9 66 50 8.4 47.1
23:10 1022 30.18 851 25.13 18.9 66 50 8.3 47
23:15 1022 30.18 851 25.13 18.9 66 50 8.3 47
23:20 1022 30.18 851 25.13 18.9 65.9 49 8.2 46.7
23:25 1022 30.18 851 25.13 18.9 66.1 49 8.2 46.8
23:30 1022 30.18 851 25.13 18.9 66.1 50 8.3 46.9
23:35 1022 30.18 851 25.13 18.9 65.9 50 8.2 46.8
23:40 1022 30.18 852 25.16 18.8 65.8 50 8.2 46.8
23:45 1022 30.18 852 25.16 18.8 65.8 50 8.1 46.7
23:50 1022 30.18 852 25.16 18.7 65.6 50 8.3 46.9
23:55 1022 30.18 851 25.13 18.7 65.6 50 8.2 46.8
24:00 1022 30.18 851 25.13 18.6 65.5 50 8.2 46.7